Airfield :
LOGIN :

Register | Disclaimer

   EN    FR    IT 

 










Legend :    VFR   Marginal VFR   IFR   Intensive IFR   Very Intensive IFR
Visi :
Ceiling :
>= 8 km
>= 3000ft
5 to 8 km
1000 to 3000 ft
1500m to 5 km
500 to 1000 ft
800 to 1500m
200 to 500 ft
< 800m
< 200 ft
Symbols :   Thunderstorms  Fog  Heavy snow  Heavy precipitations  Wind > 20 kt
SIGMETs :     Misc.  Thunderstorms  Icing  Turbulence  Mountain Waves  Volcanic Ashes






- Airport Elevation : 13 ft
- IATA code : CEQ


LFMD - Cannes Mandelieu

CURRENT METAR :
  • 021930Z AUTO 00000KT CAVOK 24/21 Q1010 NOSIG

EXPIRED METARs :
  • 021900Z AUTO 20001KT CAVOK 24/21 Q1010 NOSIG
  • 021830Z AUTO VRB01KT CAVOK 25/21 Q1010 NOSIG
  • 021800Z AUTO 16003KT 100V220 CAVOK 25/21 Q1010 NOSIG
  • 021730Z AUTO 16005KT 080V210 CAVOK 25/21 Q1010 NOSIG
  • 021700Z AUTO 16005KT 120V210 CAVOK 26/22 Q1010 NOSIG

TAF TAF LFMD
Valid from the 02 at 15:00 until the 03 at 15:00 UTC


021400Z 0215/0315 15008KT 9999 FEW020
BECMG 0215/0218 VRB03KT CAVOK
TEMPO 0223/0307 36006KT BKN012
BECMG 0307/0310 14006KT
ATIS : +33 4 93 48 73 23



MET'MAP, your aeronautical weather chart ! - Copyright ORBIFLY December 2007 - Disclaimer

ORBIFLY MET'MAP TEAM :

Programming & Development : Alexandra Zaïnal
Concept & original design : Baudouin d'Aumeries
Assistance for programming : Marc-Olivier Méhu
Technical & hardware support : Manuel Goepfert

Contact : metmap@orbifly.com




SOURCES & CREDITS :

   NOAA